sensor_id;sensor_type;location;lat;lon;timestamp;temperature;humidity
19242;DHT22;9755;47.790;9.620;2022-09-09T00:00:14;12.10;99.90
19242;DHT22;9755;47.790;9.620;2022-09-09T00:02:47;12.10;99.90
19242;DHT22;9755;47.790;9.620;2022-09-09T00:05:22;12.10;99.90
19242;DHT22;9755;47.790;9.620;2022-09-09T00:07:53;12.20;99.90
19242;DHT22;9755;47.790;9.620;2022-09-09T00:10:28;12.20;99.90
19242;DHT22;9755;47.790;9.620;2022-09-09T00:13:04;12.10;99.90
19242;DHT22;9755;47.790;9.620;2022-09-09T00:15:42;12.20;99.90
19242;DHT22;9755;47.790;9.620;2022-09-09T00:18:20;12.10;99.90
19242;DHT22;9755;47.790;9.620;2022-09-09T00:20:55;12.00;99.90
19242;DHT22;9755;47.790;9.620;2022-09-09T00:23:28;12.00;99.90
19242;DHT22;9755;47.790;9.620;2022-09-09T00:26:05;11.90;99.90
19242;DHT22;9755;47.790;9.620;2022-09-09T00:28:50;11.90;99.90
19242;DHT22;9755;47.790;9.620;2022-09-09T00:31:26;11.90;99.90
19242;DHT22;9755;47.790;9.620;2022-09-09T00:33:55;12.00;99.90
19242;DHT22;9755;47.790;9.620;2022-09-09T00:36:26;12.00;99.90
19242;DHT22;9755;47.790;9.620;2022-09-09T00:38:57;12.00;99.90
19242;DHT22;9755;47.790;9.620;2022-09-09T00:41:37;11.90;99.90
19242;DHT22;9755;47.790;9.620;2022-09-09T00:44:15;11.80;99.90
19242;DHT22;9755;47.790;9.620;2022-09-09T00:46:59;11.80;99.90
19242;DHT22;9755;47.790;9.620;2022-09-09T00:49:38;11.70;99.90
19242;DHT22;9755;47.790;9.620;2022-09-09T00:52:16;11.70;99.90
19242;DHT22;9755;47.790;9.620;2022-09-09T00:54:53;11.60;99.90
19242;DHT22;9755;47.790;9.620;2022-09-09T00:57:26;11.60;99.90
19242;DHT22;9755;47.790;9.620;2022-09-09T01:03:04;11.60;99.90
19242;DHT22;9755;47.790;9.620;2022-09-09T01:05:43;11.60;99.90
19242;DHT22;9755;47.790;9.620;2022-09-09T01:08:25;11.60;99.90
19242;DHT22;9755;47.790;9.620;2022-09-09T01:11:01;11.60;99.90
19242;DHT22;9755;47.790;9.620;2022-09-09T01:13:31;11.70;99.90
19242;DHT22;9755;47.790;9.620;2022-09-09T01:16:01;11.80;99.90
19242;DHT22;9755;47.790;9.620;2022-09-09T01:18:39;11.70;99.90
19242;DHT22;9755;47.790;9.620;2022-09-09T01:21:13;11.60;99.90
19242;DHT22;9755;47.790;9.620;2022-09-09T01:24:02;11.60;99.90
19242;DHT22;9755;47.790;9.620;2022-09-09T01:26:35;11.60;99.90
19242;DHT22;9755;47.790;9.620;2022-09-09T01:29:06;11.50;99.90
19242;DHT22;9755;47.790;9.620;2022-09-09T01:31:37;11.40;99.90
19242;DHT22;9755;47.790;9.620;2022-09-09T01:34:11;11.30;99.90
19242;DHT22;9755;47.790;9.620;2022-09-09T01:36:42;11.20;99.90
19242;DHT22;9755;47.790;9.620;2022-09-09T01:39:11;11.10;99.90
19242;DHT22;9755;47.790;9.620;2022-09-09T01:41:40;11.10;99.90
19242;DHT22;9755;47.790;9.620;2022-09-09T01:44:08;11.10;99.90
19242;DHT22;9755;47.790;9.620;2022-09-09T01:46:35;11.00;99.90
19242;DHT22;9755;47.790;9.620;2022-09-09T01:49:05;11.10;99.90
19242;DHT22;9755;47.790;9.620;2022-09-09T01:51:34;11.10;99.90
19242;DHT22;9755;47.790;9.620;2022-09-09T01:54:04;11.10;99.90
19242;DHT22;9755;47.790;9.620;2022-09-09T01:56:42;11.00;99.90
19242;DHT22;9755;47.790;9.620;2022-09-09T01:59:35;11.20;99.90
19242;DHT22;9755;47.790;9.620;2022-09-09T02:02:12;11.10;99.90
19242;DHT22;9755;47.790;9.620;2022-09-09T02:04:42;11.10;99.90
19242;DHT22;9755;47.790;9.620;2022-09-09T02:07:28;11.20;99.90
19242;DHT22;9755;47.790;9.620;2022-09-09T02:10:00;11.20;99.90
19242;DHT22;9755;47.790;9.620;2022-09-09T02:12:31;11.10;99.90
19242;DHT22;9755;47.790;9.620;2022-09-09T02:15:05;11.20;99.90
19242;DHT22;9755;47.790;9.620;2022-09-09T02:17:36;11.00;99.90
19242;DHT22;9755;47.790;9.620;2022-09-09T02:20:08;10.80;99.90
19242;DHT22;9755;47.790;9.620;2022-09-09T02:22:40;10.70;99.90
19242;DHT22;9755;47.790;9.620;2022-09-09T02:25:13;10.70;99.90
19242;DHT22;9755;47.790;9.620;2022-09-09T02:27:46;10.70;99.90
19242;DHT22;9755;47.790;9.620;2022-09-09T02:30:14;10.80;99.90
19242;DHT22;9755;47.790;9.620;2022-09-09T02:32:43;11.00;99.90
19242;DHT22;9755;47.790;9.620;2022-09-09T02:35:15;11.00;99.90
19242;DHT22;9755;47.790;9.620;2022-09-09T02:37:45;11.00;99.90
19242;DHT22;9755;47.790;9.620;2022-09-09T02:40:17;10.80;99.90
19242;DHT22;9755;47.790;9.620;2022-09-09T02:42:49;10.70;99.90
19242;DHT22;9755;47.790;9.620;2022-09-09T02:45:18;10.60;99.90
19242;DHT22;9755;47.790;9.620;2022-09-09T02:47:50;10.50;99.90
19242;DHT22;9755;47.790;9.620;2022-09-09T02:50:23;10.60;99.90
19242;DHT22;9755;47.790;9.620;2022-09-09T02:53:04;10.70;99.90
19242;DHT22;9755;47.790;9.620;2022-09-09T02:55:38;10.90;99.90
19242;DHT22;9755;47.790;9.620;2022-09-09T02:58:14;11.00;99.90
19242;DHT22;9755;47.790;9.620;2022-09-09T03:00:43;11.10;99.90
19242;DHT22;9755;47.790;9.620;2022-09-09T03:03:12;11.20;99.90
19242;DHT22;9755;47.790;9.620;2022-09-09T03:05:41;11.30;99.90
19242;DHT22;9755;47.790;9.620;2022-09-09T03:08:12;11.40;99.90
19242;DHT22;9755;47.790;9.620;2022-09-09T03:10:45;11.50;99.90
19242;DHT22;9755;47.790;9.620;2022-09-09T03:13:14;11.50;99.90
19242;DHT22;9755;47.790;9.620;2022-09-09T03:15:42;11.60;99.90
19242;DHT22;9755;47.790;9.620;2022-09-09T03:18:09;11.50;99.90
19242;DHT22;9755;47.790;9.620;2022-09-09T03:20:36;11.60;99.90
19242;DHT22;9755;47.790;9.620;2022-09-09T03:23:03;11.50;99.90
19242;DHT22;9755;47.790;9.620;2022-09-09T03:25:32;11.50;99.90
19242;DHT22;9755;47.790;9.620;2022-09-09T03:28:03;11.60;99.90
19242;DHT22;9755;47.790;9.620;2022-09-09T03:30:31;11.60;99.90
19242;DHT22;9755;47.790;9.620;2022-09-09T03:33:00;11.70;99.90
19242;DHT22;9755;47.790;9.620;2022-09-09T03:35:27;11.80;99.90
19242;DHT22;9755;47.790;9.620;2022-09-09T03:37:58;11.80;99.90
19242;DHT22;9755;47.790;9.620;2022-09-09T03:40:27;11.70;99.90
19242;DHT22;9755;47.790;9.620;2022-09-09T03:42:55;11.70;99.90
19242;DHT22;9755;47.790;9.620;2022-09-09T03:45:27;11.80;99.90
19242;DHT22;9755;47.790;9.620;2022-09-09T03:47:58;11.70;99.90
19242;DHT22;9755;47.790;9.620;2022-09-09T03:50:25;11.70;99.90
19242;DHT22;9755;47.790;9.620;2022-09-09T03:56:07;11.80;99.90
19242;DHT22;9755;47.790;9.620;2022-09-09T03:58:35;12.00;99.90
19242;DHT22;9755;47.790;9.620;2022-09-09T04:01:04;12.00;99.90
19242;DHT22;9755;47.790;9.620;2022-09-09T04:03:35;12.10;99.90
19242;DHT22;9755;47.790;9.620;2022-09-09T04:06:04;12.10;99.90
19242;DHT22;9755;47.790;9.620;2022-09-09T04:08:32;12.10;99.90
19242;DHT22;9755;47.790;9.620;2022-09-09T04:11:00;12.10;99.90
19242;DHT22;9755;47.790;9.620;2022-09-09T04:13:28;12.10;99.90
19242;DHT22;9755;47.790;9.620;2022-09-09T04:15:59;12.20;99.90
19242;DHT22;9755;47.790;9.620;2022-09-09T04:18:27;12.20;99.90
19242;DHT22;9755;47.790;9.620;2022-09-09T04:20:56;12.30;99.90
19242;DHT22;9755;47.790;9.620;2022-09-09T04:23:24;12.40;99.90
19242;DHT22;9755;47.790;9.620;2022-09-09T04:25:53;12.50;99.90
19242;DHT22;9755;47.790;9.620;2022-09-09T04:28:22;12.60;99.90
19242;DHT22;9755;47.790;9.620;2022-09-09T04:30:50;12.80;99.90
19242;DHT22;9755;47.790;9.620;2022-09-09T04:33:18;12.90;99.90
19242;DHT22;9755;47.790;9.620;2022-09-09T04:35:46;13.00;99.90
19242;DHT22;9755;47.790;9.620;2022-09-09T04:38:15;13.10;99.90
19242;DHT22;9755;47.790;9.620;2022-09-09T04:40:43;13.10;99.90
19242;DHT22;9755;47.790;9.620;2022-09-09T04:43:11;13.30;99.90
19242;DHT22;9755;47.790;9.620;2022-09-09T04:45:38;13.40;99.90
19242;DHT22;9755;47.790;9.620;2022-09-09T04:48:06;13.60;99.90
19242;DHT22;9755;47.790;9.620;2022-09-09T04:50:33;13.70;99.90
19242;DHT22;9755;47.790;9.620;2022-09-09T04:53:01;13.90;99.90
19242;DHT22;9755;47.790;9.620;2022-09-09T04:55:31;14.00;99.90
19242;DHT22;9755;47.790;9.620;2022-09-09T04:58:03;14.10;99.90
19242;DHT22;9755;47.790;9.620;2022-09-09T05:00:30;14.00;99.90
19242;DHT22;9755;47.790;9.620;2022-09-09T05:02:57;14.00;99.90
19242;DHT22;9755;47.790;9.620;2022-09-09T05:05:24;13.90;99.90
19242;DHT22;9755;47.790;9.620;2022-09-09T05:07:54;13.80;99.90
19242;DHT22;9755;47.790;9.620;2022-09-09T05:10:21;13.80;99.90
19242;DHT22;9755;47.790;9.620;2022-09-09T05:13:04;13.80;99.90
19242;DHT22;9755;47.790;9.620;2022-09-09T05:15:32;13.70;99.90
19242;DHT22;9755;47.790;9.620;2022-09-09T05:17:59;13.70;99.90
19242;DHT22;9755;47.790;9.620;2022-09-09T05:20:28;13.60;99.90
19242;DHT22;9755;47.790;9.620;2022-09-09T05:22:55;13.60;99.90
19242;DHT22;9755;47.790;9.620;2022-09-09T05:25:23;13.70;99.90
19242;DHT22;9755;47.790;9.620;2022-09-09T05:27:51;13.80;99.90
19242;DHT22;9755;47.790;9.620;2022-09-09T05:30:20;13.80;99.90
19242;DHT22;9755;47.790;9.620;2022-09-09T05:32:48;13.90;99.90
19242;DHT22;9755;47.790;9.620;2022-09-09T05:35:15;14.00;99.90
19242;DHT22;9755;47.790;9.620;2022-09-09T05:37:44;14.10;99.90
19242;DHT22;9755;47.790;9.620;2022-09-09T05:40:12;14.10;99.90
19242;DHT22;9755;47.790;9.620;2022-09-09T05:42:39;14.10;99.90
19242;DHT22;9755;47.790;9.620;2022-09-09T05:45:07;14.10;99.90
19242;DHT22;9755;47.790;9.620;2022-09-09T05:47:36;14.10;99.90
19242;DHT22;9755;47.790;9.620;2022-09-09T05:50:04;14.20;99.90
19242;DHT22;9755;47.790;9.620;2022-09-09T05:52:35;14.20;99.90
19242;DHT22;9755;47.790;9.620;2022-09-09T05:55:02;14.10;99.90
19242;DHT22;9755;47.790;9.620;2022-09-09T05:57:30;14.10;99.90
19242;DHT22;9755;47.790;9.620;2022-09-09T05:59:59;14.00;99.90
19242;DHT22;9755;47.790;9.620;2022-09-09T06:02:26;14.00;99.90
19242;DHT22;9755;47.790;9.620;2022-09-09T06:04:54;14.00;99.90
19242;DHT22;9755;47.790;9.620;2022-09-09T06:07:21;14.00;99.90
19242;DHT22;9755;47.790;9.620;2022-09-09T06:09:48;14.00;99.90
19242;DHT22;9755;47.790;9.620;2022-09-09T06:12:16;14.00;99.90
19242;DHT22;9755;47.790;9.620;2022-09-09T06:14:45;14.00;99.90
19242;DHT22;9755;47.790;9.620;2022-09-09T06:17:12;14.10;99.90
19242;DHT22;9755;47.790;9.620;2022-09-09T06:19:39;14.10;99.90
19242;DHT22;9755;47.790;9.620;2022-09-09T06:22:08;14.20;99.90
19242;DHT22;9755;47.790;9.620;2022-09-09T06:24:38;14.30;99.90
19242;DHT22;9755;47.790;9.620;2022-09-09T06:27:05;14.40;99.90
19242;DHT22;9755;47.790;9.620;2022-09-09T06:29:34;14.50;99.90
19242;DHT22;9755;47.790;9.620;2022-09-09T06:32:03;14.50;99.90
19242;DHT22;9755;47.790;9.620;2022-09-09T06:34:30;14.50;99.90
19242;DHT22;9755;47.790;9.620;2022-09-09T06:36:57;14.50;99.90
19242;DHT22;9755;47.790;9.620;2022-09-09T06:39:25;14.50;99.90
19242;DHT22;9755;47.790;9.620;2022-09-09T06:41:52;14.40;99.90
19242;DHT22;9755;47.790;9.620;2022-09-09T06:44:20;14.40;99.90
19242;DHT22;9755;47.790;9.620;2022-09-09T06:46:48;14.40;99.90
19242;DHT22;9755;47.790;9.620;2022-09-09T06:49:15;14.30;99.90
19242;DHT22;9755;47.790;9.620;2022-09-09T06:51:42;14.30;99.90
19242;DHT22;9755;47.790;9.620;2022-09-09T06:54:10;14.30;99.90
19242;DHT22;9755;47.790;9.620;2022-09-09T06:56:40;14.30;99.90
19242;DHT22;9755;47.790;9.620;2022-09-09T06:59:09;14.30;99.90
19242;DHT22;9755;47.790;9.620;2022-09-09T07:01:38;14.30;99.90
19242;DHT22;9755;47.790;9.620;2022-09-09T07:04:06;14.30;99.90
19242;DHT22;9755;47.790;9.620;2022-09-09T07:06:36;14.40;99.90
19242;DHT22;9755;47.790;9.620;2022-09-09T07:09:09;14.30;99.90
19242;DHT22;9755;47.790;9.620;2022-09-09T07:11:40;14.40;99.90
19242;DHT22;9755;47.790;9.620;2022-09-09T07:14:08;14.40;99.90
19242;DHT22;9755;47.790;9.620;2022-09-09T07:16:38;14.40;99.90
19242;DHT22;9755;47.790;9.620;2022-09-09T07:19:05;14.50;99.90
19242;DHT22;9755;47.790;9.620;2022-09-09T07:21:33;14.50;99.90
19242;DHT22;9755;47.790;9.620;2022-09-09T07:24:03;14.60;99.90
19242;DHT22;9755;47.790;9.620;2022-09-09T07:26:33;14.60;99.90
19242;DHT22;9755;47.790;9.620;2022-09-09T07:29:03;14.70;99.90
19242;DHT22;9755;47.790;9.620;2022-09-09T07:31:33;14.90;99.90
19242;DHT22;9755;47.790;9.620;2022-09-09T07:34:01;15.00;99.90
19242;DHT22;9755;47.790;9.620;2022-09-09T07:36:31;15.10;99.90
19242;DHT22;9755;47.790;9.620;2022-09-09T07:39:00;15.20;99.90
19242;DHT22;9755;47.790;9.620;2022-09-09T07:41:31;15.30;99.90
19242;DHT22;9755;47.790;9.620;2022-09-09T07:44:04;15.40;99.90
19242;DHT22;9755;47.790;9.620;2022-09-09T07:46:32;15.40;99.90
19242;DHT22;9755;47.790;9.620;2022-09-09T07:48:59;15.40;99.90
19242;DHT22;9755;47.790;9.620;2022-09-09T07:51:28;15.50;99.90
19242;DHT22;9755;47.790;9.620;2022-09-09T07:53:58;15.60;99.90
19242;DHT22;9755;47.790;9.620;2022-09-09T07:56:26;15.60;99.90
19242;DHT22;9755;47.790;9.620;2022-09-09T07:58:54;15.60;99.90
19242;DHT22;9755;47.790;9.620;2022-09-09T08:01:25;15.60;99.90
19242;DHT22;9755;47.790;9.620;2022-09-09T08:03:55;15.50;99.90
19242;DHT22;9755;47.790;9.620;2022-09-09T08:06:24;15.50;99.90
19242;DHT22;9755;47.790;9.620;2022-09-09T08:08:53;15.60;99.90
19242;DHT22;9755;47.790;9.620;2022-09-09T08:11:21;15.60;99.90
19242;DHT22;9755;47.790;9.620;2022-09-09T08:13:49;15.80;99.90
19242;DHT22;9755;47.790;9.620;2022-09-09T08:16:19;16.00;99.90
19242;DHT22;9755;47.790;9.620;2022-09-09T08:18:48;16.50;99.90
19242;DHT22;9755;47.790;9.620;2022-09-09T08:21:19;16.80;99.90
19242;DHT22;9755;47.790;9.620;2022-09-09T08:23:47;17.00;99.90
19242;DHT22;9755;47.790;9.620;2022-09-09T08:26:16;17.20;99.90
19242;DHT22;9755;47.790;9.620;2022-09-09T08:28:45;17.20;99.90
19242;DHT22;9755;47.790;9.620;2022-09-09T08:31:14;17.60;99.90
19242;DHT22;9755;47.790;9.620;2022-09-09T08:33:42;17.60;99.90
19242;DHT22;9755;47.790;9.620;2022-09-09T08:36:14;17.80;99.90
19242;DHT22;9755;47.790;9.620;2022-09-09T08:38:42;17.80;99.90
19242;DHT22;9755;47.790;9.620;2022-09-09T08:44:17;18.00;99.90
19242;DHT22;9755;47.790;9.620;2022-09-09T08:46:56;17.90;99.90
19242;DHT22;9755;47.790;9.620;2022-09-09T08:49:52;17.80;99.90
19242;DHT22;9755;47.790;9.620;2022-09-09T08:52:29;18.00;99.90
19242;DHT22;9755;47.790;9.620;2022-09-09T08:55:02;18.20;99.90
19242;DHT22;9755;47.790;9.620;2022-09-09T08:57:31;18.30;99.90
19242;DHT22;9755;47.790;9.620;2022-09-09T08:59:59;18.30;99.90
19242;DHT22;9755;47.790;9.620;2022-09-09T09:02:30;18.60;99.90
19242;DHT22;9755;47.790;9.620;2022-09-09T09:05:14;18.80;99.90
19242;DHT22;9755;47.790;9.620;2022-09-09T09:07:55;19.10;99.90
19242;DHT22;9755;47.790;9.620;2022-09-09T09:10:39;19.40;99.90
19242;DHT22;9755;47.790;9.620;2022-09-09T09:13:13;19.30;99.90
19242;DHT22;9755;47.790;9.620;2022-09-09T09:15:42;18.90;99.90
19242;DHT22;9755;47.790;9.620;2022-09-09T09:18:13;18.90;99.90
19242;DHT22;9755;47.790;9.620;2022-09-09T09:20:47;19.30;99.90
19242;DHT22;9755;47.790;9.620;2022-09-09T09:23:23;19.80;99.90
19242;DHT22;9755;47.790;9.620;2022-09-09T09:25:53;20.10;99.90
19242;DHT22;9755;47.790;9.620;2022-09-09T09:28:24;19.90;99.90
19242;DHT22;9755;47.790;9.620;2022-09-09T09:30:55;20.10;99.90
19242;DHT22;9755;47.790;9.620;2022-09-09T09:33:26;19.90;99.90
19242;DHT22;9755;47.790;9.620;2022-09-09T09:35:54;20.20;99.90
19242;DHT22;9755;47.790;9.620;2022-09-09T09:38:24;19.90;99.90
19242;DHT22;9755;47.790;9.620;2022-09-09T09:40:55;19.90;99.90
19242;DHT22;9755;47.790;9.620;2022-09-09T09:43:28;19.70;99.90
19242;DHT22;9755;47.790;9.620;2022-09-09T09:45:56;19.90;99.90
19242;DHT22;9755;47.790;9.620;2022-09-09T09:48:24;20.20;99.90
19242;DHT22;9755;47.790;9.620;2022-09-09T09:50:54;20.20;99.90
19242;DHT22;9755;47.790;9.620;2022-09-09T09:53:27;21.60;99.90
19242;DHT22;9755;47.790;9.620;2022-09-09T09:55:57;23.10;99.90
19242;DHT22;9755;47.790;9.620;2022-09-09T09:58:26;23.10;99.90
19242;DHT22;9755;47.790;9.620;2022-09-09T10:00:54;24.50;99.90
19242;DHT22;9755;47.790;9.620;2022-09-09T10:03:26;25.10;99.90
19242;DHT22;9755;47.790;9.620;2022-09-09T10:05:54;24.50;99.90
19242;DHT22;9755;47.790;9.620;2022-09-09T10:08:21;24.80;99.90
19242;DHT22;9755;47.790;9.620;2022-09-09T10:11:07;23.80;99.90
19242;DHT22;9755;47.790;9.620;2022-09-09T10:13:47;25.00;99.90
19242;DHT22;9755;47.790;9.620;2022-09-09T10:16:29;25.90;99.90
19242;DHT22;9755;47.790;9.620;2022-09-09T10:19:00;25.90;99.90
19242;DHT22;9755;47.790;9.620;2022-09-09T10:24:31;23.20;99.90
19242;DHT22;9755;47.790;9.620;2022-09-09T10:27:09;23.00;99.90
19242;DHT22;9755;47.790;9.620;2022-09-09T10:29:52;22.30;99.90
19242;DHT22;9755;47.790;9.620;2022-09-09T10:32:37;22.30;99.90
19242;DHT22;9755;47.790;9.620;2022-09-09T10:35:10;24.50;99.90
19242;DHT22;9755;47.790;9.620;2022-09-09T10:37:54;25.50;99.90
19242;DHT22;9755;47.790;9.620;2022-09-09T10:40:31;24.40;99.90
19242;DHT22;9755;47.790;9.620;2022-09-09T10:43:07;25.50;99.90
19242;DHT22;9755;47.790;9.620;2022-09-09T10:45:45;25.80;99.90
19242;DHT22;9755;47.790;9.620;2022-09-09T10:48:38;27.00;97.80
19242;DHT22;9755;47.790;9.620;2022-09-09T10:51:19;27.20;96.80
19242;DHT22;9755;47.790;9.620;2022-09-09T10:53:56;28.10;94.80
19242;DHT22;9755;47.790;9.620;2022-09-09T10:56:28;29.20;92.10
19242;DHT22;9755;47.790;9.620;2022-09-09T10:59:00;28.20;92.90
19242;DHT22;9755;47.790;9.620;2022-09-09T11:01:32;26.40;94.30
19242;DHT22;9755;47.790;9.620;2022-09-09T11:04:05;26.00;96.20
19242;DHT22;9755;47.790;9.620;2022-09-09T11:06:39;25.30;97.30
19242;DHT22;9755;47.790;9.620;2022-09-09T11:09:15;24.60;97.40
19242;DHT22;9755;47.790;9.620;2022-09-09T11:11:47;24.80;98.30
19242;DHT22;9755;47.790;9.620;2022-09-09T11:14:22;25.30;97.40
19242;DHT22;9755;47.790;9.620;2022-09-09T11:16:52;26.70;96.50
19242;DHT22;9755;47.790;9.620;2022-09-09T11:19:26;27.40;93.80
19242;DHT22;9755;47.790;9.620;2022-09-09T11:21:58;25.90;93.40
19242;DHT22;9755;47.790;9.620;2022-09-09T11:24:31;25.20;94.60
19242;DHT22;9755;47.790;9.620;2022-09-09T11:27:02;24.70;97.10
19242;DHT22;9755;47.790;9.620;2022-09-09T11:32:56;23.30;99.90
19242;DHT22;9755;47.790;9.620;2022-09-09T11:35:33;23.00;99.90
19242;DHT22;9755;47.790;9.620;2022-09-09T11:38:16;22.50;99.90
19242;DHT22;9755;47.790;9.620;2022-09-09T11:40:45;22.70;99.90
19242;DHT22;9755;47.790;9.620;2022-09-09T11:43:16;22.70;99.90
19242;DHT22;9755;47.790;9.620;2022-09-09T11:45:51;23.20;99.90
19242;DHT22;9755;47.790;9.620;2022-09-09T11:48:27;23.60;99.90
19242;DHT22;9755;47.790;9.620;2022-09-09T11:50:59;23.70;99.90
19242;DHT22;9755;47.790;9.620;2022-09-09T11:53:26;23.90;99.90
19242;DHT22;9755;47.790;9.620;2022-09-09T11:58:55;23.80;99.90
19242;DHT22;9755;47.790;9.620;2022-09-09T12:01:31;23.30;99.90
19242;DHT22;9755;47.790;9.620;2022-09-09T12:04:30;23.30;99.90
19242;DHT22;9755;47.790;9.620;2022-09-09T12:07:03;23.00;99.90
19242;DHT22;9755;47.790;9.620;2022-09-09T12:09:45;22.10;99.90
19242;DHT22;9755;47.790;9.620;2022-09-09T12:12:32;21.50;99.90
19242;DHT22;9755;47.790;9.620;2022-09-09T12:15:24;21.90;99.90
19242;DHT22;9755;47.790;9.620;2022-09-09T12:17:56;22.40;99.90
19242;DHT22;9755;47.790;9.620;2022-09-09T12:20:30;23.70;99.90
19242;DHT22;9755;47.790;9.620;2022-09-09T12:23:18;24.00;99.90
19242;DHT22;9755;47.790;9.620;2022-09-09T12:25:55;24.20;99.90
19242;DHT22;9755;47.790;9.620;2022-09-09T12:28:39;24.00;99.90
19242;DHT22;9755;47.790;9.620;2022-09-09T12:31:12;24.20;99.90
19242;DHT22;9755;47.790;9.620;2022-09-09T12:33:45;24.20;99.90
19242;DHT22;9755;47.790;9.620;2022-09-09T12:36:15;23.80;99.90
19242;DHT22;9755;47.790;9.620;2022-09-09T12:38:46;23.40;99.90
19242;DHT22;9755;47.790;9.620;2022-09-09T12:41:21;23.20;99.90
19242;DHT22;9755;47.790;9.620;2022-09-09T12:43:50;21.70;99.90
19242;DHT22;9755;47.790;9.620;2022-09-09T12:46:24;21.90;99.90
19242;DHT22;9755;47.790;9.620;2022-09-09T12:48:55;22.90;99.90
19242;DHT22;9755;47.790;9.620;2022-09-09T12:51:28;22.80;99.90
19242;DHT22;9755;47.790;9.620;2022-09-09T12:53:56;23.40;99.90
19242;DHT22;9755;47.790;9.620;2022-09-09T12:56:25;24.00;99.90
19242;DHT22;9755;47.790;9.620;2022-09-09T12:58:55;24.10;99.90
19242;DHT22;9755;47.790;9.620;2022-09-09T13:01:25;23.40;99.90
19242;DHT22;9755;47.790;9.620;2022-09-09T13:03:53;23.40;99.90
19242;DHT22;9755;47.790;9.620;2022-09-09T13:06:23;23.30;99.90
19242;DHT22;9755;47.790;9.620;2022-09-09T13:08:50;23.30;99.90
19242;DHT22;9755;47.790;9.620;2022-09-09T13:11:20;23.80;99.60
19242;DHT22;9755;47.790;9.620;2022-09-09T13:13:54;24.00;99.40
19242;DHT22;9755;47.790;9.620;2022-09-09T13:16:25;24.00;99.10
19242;DHT22;9755;47.790;9.620;2022-09-09T13:18:56;23.80;98.80
19242;DHT22;9755;47.790;9.620;2022-09-09T13:21:33;23.50;99.80
19242;DHT22;9755;47.790;9.620;2022-09-09T13:24:01;23.20;99.90
19242;DHT22;9755;47.790;9.620;2022-09-09T13:26:30;23.10;99.90
19242;DHT22;9755;47.790;9.620;2022-09-09T13:29:14;22.50;99.90
19242;DHT22;9755;47.790;9.620;2022-09-09T13:31:44;22.80;99.90
19242;DHT22;9755;47.790;9.620;2022-09-09T13:34:13;23.10;99.90
19242;DHT22;9755;47.790;9.620;2022-09-09T13:36:47;23.60;99.90
19242;DHT22;9755;47.790;9.620;2022-09-09T13:39:16;23.00;99.90
19242;DHT22;9755;47.790;9.620;2022-09-09T13:41:45;23.00;99.90
19242;DHT22;9755;47.790;9.620;2022-09-09T13:44:20;23.10;99.90
19242;DHT22;9755;47.790;9.620;2022-09-09T13:47:03;22.80;99.90
19242;DHT22;9755;47.790;9.620;2022-09-09T13:49:31;22.70;99.90
19242;DHT22;9755;47.790;9.620;2022-09-09T13:52:10;22.90;99.90
19242;DHT22;9755;47.790;9.620;2022-09-09T13:54:39;22.40;99.90
19242;DHT22;9755;47.790;9.620;2022-09-09T13:57:15;22.40;99.90
19242;DHT22;9755;47.790;9.620;2022-09-09T13:59:43;22.90;99.40
19242;DHT22;9755;47.790;9.620;2022-09-09T14:02:10;23.10;99.10
19242;DHT22;9755;47.790;9.620;2022-09-09T14:04:37;22.90;98.90
19242;DHT22;9755;47.790;9.620;2022-09-09T14:07:09;23.30;99.30
19242;DHT22;9755;47.790;9.620;2022-09-09T14:09:38;23.40;99.60
19242;DHT22;9755;47.790;9.620;2022-09-09T14:12:05;23.50;98.30
19242;DHT22;9755;47.790;9.620;2022-09-09T14:14:33;23.40;96.60
19242;DHT22;9755;47.790;9.620;2022-09-09T14:17:00;23.20;94.40
19242;DHT22;9755;47.790;9.620;2022-09-09T14:19:29;23.30;94.40
19242;DHT22;9755;47.790;9.620;2022-09-09T14:21:56;23.10;94.50
19242;DHT22;9755;47.790;9.620;2022-09-09T14:24:25;22.70;94.70
19242;DHT22;9755;47.790;9.620;2022-09-09T14:26:52;22.80;94.00
19242;DHT22;9755;47.790;9.620;2022-09-09T14:29:19;23.10;94.50
19242;DHT22;9755;47.790;9.620;2022-09-09T14:31:46;23.10;95.10
19242;DHT22;9755;47.790;9.620;2022-09-09T14:34:13;22.90;95.30
19242;DHT22;9755;47.790;9.620;2022-09-09T14:36:40;22.80;95.30
19242;DHT22;9755;47.790;9.620;2022-09-09T14:39:07;22.80;95.40
19242;DHT22;9755;47.790;9.620;2022-09-09T14:41:36;23.20;95.70
19242;DHT22;9755;47.790;9.620;2022-09-09T14:44:03;23.20;95.00
19242;DHT22;9755;47.790;9.620;2022-09-09T14:46:30;22.70;95.70
19242;DHT22;9755;47.790;9.620;2022-09-09T14:48:58;22.10;97.10
19242;DHT22;9755;47.790;9.620;2022-09-09T14:51:25;22.10;98.10
19242;DHT22;9755;47.790;9.620;2022-09-09T14:53:54;22.60;97.90
19242;DHT22;9755;47.790;9.620;2022-09-09T14:56:23;22.50;98.70
19242;DHT22;9755;47.790;9.620;2022-09-09T14:58:55;22.70;99.60
19242;DHT22;9755;47.790;9.620;2022-09-09T15:01:23;22.90;98.30
19242;DHT22;9755;47.790;9.620;2022-09-09T15:03:54;23.10;98.20
19242;DHT22;9755;47.790;9.620;2022-09-09T15:06:22;22.90;98.10
19242;DHT22;9755;47.790;9.620;2022-09-09T15:08:51;22.90;96.80
19242;DHT22;9755;47.790;9.620;2022-09-09T15:11:19;22.70;97.30
19242;DHT22;9755;47.790;9.620;2022-09-09T15:13:51;22.80;97.70
19242;DHT22;9755;47.790;9.620;2022-09-09T15:16:21;22.90;97.90
19242;DHT22;9755;47.790;9.620;2022-09-09T15:18:51;23.00;97.80
19242;DHT22;9755;47.790;9.620;2022-09-09T15:21:23;22.50;97.90
19242;DHT22;9755;47.790;9.620;2022-09-09T15:23:51;22.20;98.70
19242;DHT22;9755;47.790;9.620;2022-09-09T15:26:21;21.80;99.00
19242;DHT22;9755;47.790;9.620;2022-09-09T15:28:49;21.30;99.20
19242;DHT22;9755;47.790;9.620;2022-09-09T15:31:18;21.30;99.90
19242;DHT22;9755;47.790;9.620;2022-09-09T15:33:49;21.50;99.90
19242;DHT22;9755;47.790;9.620;2022-09-09T15:36:20;21.90;99.90
19242;DHT22;9755;47.790;9.620;2022-09-09T15:38:48;22.10;99.90
19242;DHT22;9755;47.790;9.620;2022-09-09T15:41:16;22.40;99.90
19242;DHT22;9755;47.790;9.620;2022-09-09T15:43:44;22.20;99.90
19242;DHT22;9755;47.790;9.620;2022-09-09T15:46:27;21.70;99.90
19242;DHT22;9755;47.790;9.620;2022-09-09T15:48:57;21.20;99.90
19242;DHT22;9755;47.790;9.620;2022-09-09T15:51:25;21.10;99.90
19242;DHT22;9755;47.790;9.620;2022-09-09T15:53:57;21.40;99.90
19242;DHT22;9755;47.790;9.620;2022-09-09T15:56:25;21.70;99.90
19242;DHT22;9755;47.790;9.620;2022-09-09T15:58:55;22.00;99.90
19242;DHT22;9755;47.790;9.620;2022-09-09T16:01:23;22.20;99.90
19242;DHT22;9755;47.790;9.620;2022-09-09T16:03:50;22.60;99.60
19242;DHT22;9755;47.790;9.620;2022-09-09T16:06:20;22.70;99.30
19242;DHT22;9755;47.790;9.620;2022-09-09T16:08:49;22.40;99.40
19242;DHT22;9755;47.790;9.620;2022-09-09T16:11:18;22.10;99.70
19242;DHT22;9755;47.790;9.620;2022-09-09T16:13:47;21.60;99.90
19242;DHT22;9755;47.790;9.620;2022-09-09T16:16:16;21.80;99.90
19242;DHT22;9755;47.790;9.620;2022-09-09T16:18:45;21.40;99.90
19242;DHT22;9755;47.790;9.620;2022-09-09T16:21:14;21.60;99.90
19242;DHT22;9755;47.790;9.620;2022-09-09T16:23:42;21.60;99.90
19242;DHT22;9755;47.790;9.620;2022-09-09T16:26:12;22.00;99.90
19242;DHT22;9755;47.790;9.620;2022-09-09T16:28:40;22.20;98.70